Airfield :
LOGIN :

Register | Disclaimer

   EN    FR    IT 

 










Legend :    VFR   Marginal VFR   IFR   Intensive IFR   Very Intensive IFR
Visi :
Ceiling :
>= 8 km
>= 3000ft
5 to 8 km
1000 to 3000 ft
1500m to 5 km
500 to 1000 ft
800 to 1500m
200 to 500 ft
< 800m
< 200 ft
Symbols :   Thunderstorms  Fog  Heavy snow  Heavy precipitations  Wind > 20 kt
SIGMETs :     Misc.  Thunderstorms  Icing  Turbulence  Mountain Waves  Volcanic Ashes







- Airport Elevation : 336 ft
- IATA code : GCI
- Download approach charts


EGJB - Guernsey

CURRENT METAR :
  • 201950Z 28011KT CAVOK 16/15 Q1017

EXPIRED METARs :
  • 201920Z 26010KT 9999 FEW030 17/15 Q1016
  • 201850Z 26013KT 9999 FEW030 17/14 Q1016
  • 201820Z 26015KT 9999 FEW030 17/14 Q1016
  • 201750Z 27014KT 9999 FEW008 17/15 Q1015

TAF TAF EGJB
Valid from the 20 at 21:00 until the 21 at 06:00 UTC


201954Z 2021/2106 26009KT 9999 FEW008
PROB30
TEMPO 2101/2106 7000 BKN008
ATIS : +44 1481 238 957
No reported NOTAMs for that airfield.



MET'MAP, your aeronautical weather chart ! - Copyright ORBIFLY December 2007 - Disclaimer

ORBIFLY MET'MAP TEAM :

Programming & Development : Alexandra Zaïnal
Concept & Development : Baudouin d'Aumeries
Co-Development & Prog : Marc-Olivier Méhu
Technical & hardware support : Manuel Goepfert

Contact : metmap@orbifly.com




SOURCES & CREDITS :

   NOAA